sensor_id;sensor_type;location;lat;lon;timestamp;pressure;altitude;pressure_sealevel;temperature;humidity
23166;BME280;11751;42.700;24.170;2023-03-20T00:00:22;94301.47;;;4.55;79.82
23166;BME280;11751;42.700;24.170;2023-03-20T00:02:49;94307.03;;;4.55;79.65
23166;BME280;11751;42.700;24.170;2023-03-20T00:05:19;94300.72;;;4.49;80.45
23166;BME280;11751;42.700;24.170;2023-03-20T00:07:46;94303.50;;;4.49;80.66
23166;BME280;11751;42.700;24.170;2023-03-20T00:10:14;94294.47;;;4.43;80.66
23166;BME280;11751;42.700;24.170;2023-03-20T00:12:39;94300.03;;;4.43;80.81
23166;BME280;11751;42.700;24.170;2023-03-20T00:15:16;94298.63;;;4.20;82.34
23166;BME280;11751;42.700;24.170;2023-03-20T00:17:46;94296.31;;;4.29;81.83
23166;BME280;11751;42.700;24.170;2023-03-20T00:20:15;94299.59;;;4.28;81.75
23166;BME280;11751;42.700;24.170;2023-03-20T00:22:41;94288.78;;;4.24;81.90
23166;BME280;11751;42.700;24.170;2023-03-20T00:25:11;94286.03;;;4.19;82.22
23166;BME280;11751;42.700;24.170;2023-03-20T00:27:37;94287.03;;;4.16;82.02
23166;BME280;11751;42.700;24.170;2023-03-20T00:30:19;94282.09;;;3.98;82.64
23166;BME280;11751;42.700;24.170;2023-03-20T00:32:46;94278.56;;;3.98;83.43
23166;BME280;11751;42.700;24.170;2023-03-20T00:37:48;94267.81;;;3.78;86.15
23166;BME280;11751;42.700;24.170;2023-03-20T00:40:14;94262.56;;;3.74;87.09
23166;BME280;11751;42.700;24.170;2023-03-20T00:42:39;94269.88;;;3.72;87.50
23166;BME280;11751;42.700;24.170;2023-03-20T00:45:07;94276.38;;;3.80;87.45
23166;BME280;11751;42.700;24.170;2023-03-20T00:47:35;94270.06;;;3.79;87.53
23166;BME280;11751;42.700;24.170;2023-03-20T00:50:09;94269.28;;;3.90;86.94
23166;BME280;11751;42.700;24.170;2023-03-20T00:52:39;94267.78;;;3.89;86.15
23166;BME280;11751;42.700;24.170;2023-03-20T00:55:04;94264.47;;;3.96;85.52
23166;BME280;11751;42.700;24.170;2023-03-20T00:57:38;94269.28;;;3.90;85.19
23166;BME280;11751;42.700;24.170;2023-03-20T01:02:55;94261.25;;;3.86;85.59
23166;BME280;11751;42.700;24.170;2023-03-20T01:05:21;94255.72;;;3.86;85.68
23166;BME280;11751;42.700;24.170;2023-03-20T01:07:46;94255.94;;;3.88;85.70
23166;BME280;11751;42.700;24.170;2023-03-20T01:10:12;94254.47;;;3.82;85.02
23166;BME280;11751;42.700;24.170;2023-03-20T01:12:41;94250.66;;;3.85;84.95
23166;BME280;11751;42.700;24.170;2023-03-20T01:15:24;94242.38;;;3.79;84.59
23166;BME280;11751;42.700;24.170;2023-03-20T01:17:51;94249.44;;;3.80;84.02
23166;BME280;11751;42.700;24.170;2023-03-20T01:20:23;94243.91;;;3.80;83.96
23166;BME280;11751;42.700;24.170;2023-03-20T01:22:49;94244.16;;;3.82;83.64
23166;BME280;11751;42.700;24.170;2023-03-20T01:25:15;94243.91;;;3.80;83.14
23166;BME280;11751;42.700;24.170;2023-03-20T01:27:49;94248.69;;;3.80;82.86
23166;BME280;11751;42.700;24.170;2023-03-20T01:30:21;94238.91;;;3.73;83.39
23166;BME280;11751;42.700;24.170;2023-03-20T01:32:48;94233.63;;;3.70;83.53
23166;BME280;11751;42.700;24.170;2023-03-20T01:35:19;94233.09;;;3.71;83.25
23166;BME280;11751;42.700;24.170;2023-03-20T01:37:46;94219.31;;;3.60;84.20
23166;BME280;11751;42.700;24.170;2023-03-20T01:40:36;94228.09;;;3.70;84.36
23166;BME280;11751;42.700;24.170;2023-03-20T01:43:16;94232.66;;;3.62;84.52
23166;BME280;11751;42.700;24.170;2023-03-20T01:46:33;94228.41;;;3.55;83.98
23166;BME280;11751;42.700;24.170;2023-03-20T01:51:19;94220.63;;;3.43;84.19
23166;BME280;11751;42.700;24.170;2023-03-20T01:53:49;94225.91;;;3.46;84.65
23166;BME280;11751;42.700;24.170;2023-03-20T01:56:18;94237.22;;;3.43;84.84
23166;BME280;11751;42.700;24.170;2023-03-20T01:58:48;94229.19;;;3.39;85.73
23166;BME280;11751;42.700;24.170;2023-03-20T02:01:16;94223.91;;;3.36;85.42
23166;BME280;11751;42.700;24.170;2023-03-20T02:03:45;94226.41;;;3.39;84.90
23166;BME280;11751;42.700;24.170;2023-03-20T02:06:11;94221.66;;;3.35;84.96
23166;BME280;11751;42.700;24.170;2023-03-20T02:08:46;94219.91;;;3.32;85.26
23166;BME280;11751;42.700;24.170;2023-03-20T02:11:14;94219.91;;;3.32;85.44
23166;BME280;11751;42.700;24.170;2023-03-20T02:13:41;94216.91;;;3.24;85.87
23166;BME280;11751;42.700;24.170;2023-03-20T02:16:11;94221.69;;;3.18;86.53
23166;BME280;11751;42.700;24.170;2023-03-20T02:18:38;94206.59;;;3.25;85.98
23166;BME280;11751;42.700;24.170;2023-03-20T02:27:08;94214.66;;;3.17;84.69
23166;BME280;11751;42.700;24.170;2023-03-20T02:30:01;94215.16;;;3.21;84.57
23166;BME280;11751;42.700;24.170;2023-03-20T02:43:47;94201.09;;;3.08;85.32
23166;BME280;11751;42.700;24.170;2023-03-20T02:46:45;94204.13;;;3.10;85.43
23166;BME280;11751;42.700;24.170;2023-03-20T02:55:17;94199.38;;;2.89;84.87
23166;BME280;11751;42.700;24.170;2023-03-20T02:57:55;94201.91;;;2.87;85.68
23166;BME280;11751;42.700;24.170;2023-03-20T03:00:31;94192.59;;;2.84;86.15
23166;BME280;11751;42.700;24.170;2023-03-20T03:03:06;94198.63;;;2.83;86.33
23166;BME280;11751;42.700;24.170;2023-03-20T03:05:43;94196.88;;;2.80;86.30
23166;BME280;11751;42.700;24.170;2023-03-20T03:08:12;94195.88;;;2.72;86.60
23166;BME280;11751;42.700;24.170;2023-03-20T03:10:43;94190.34;;;2.72;86.46
23166;BME280;11751;42.700;24.170;2023-03-20T03:13:14;94194.38;;;2.71;86.22
23166;BME280;11751;42.700;24.170;2023-03-20T03:15:44;94197.38;;;2.73;86.69
23166;BME280;11751;42.700;24.170;2023-03-20T03:18:14;94190.84;;;2.76;86.44
23166;BME280;11751;42.700;24.170;2023-03-20T03:20:42;94196.88;;;2.80;86.09
23166;BME280;11751;42.700;24.170;2023-03-20T03:23:26;94195.13;;;2.82;85.96
23166;BME280;11751;42.700;24.170;2023-03-20T03:25:54;94197.13;;;2.76;85.91
23166;BME280;11751;42.700;24.170;2023-03-20T03:28:40;94201.41;;;2.72;86.21
23166;BME280;11751;42.700;24.170;2023-03-20T03:31:10;94204.41;;;2.74;85.69
23166;BME280;11751;42.700;24.170;2023-03-20T03:33:38;94194.38;;;2.71;85.38
23166;BME280;11751;42.700;24.170;2023-03-20T03:38:59;94204.94;;;2.78;85.75
23166;BME280;11751;42.700;24.170;2023-03-20T03:41:46;94189.84;;;2.73;86.53
23166;BME280;11751;42.700;24.170;2023-03-20T03:46:40;94200.91;;;2.62;85.96
23166;BME280;11751;42.700;24.170;2023-03-20T03:49:09;94185.84;;;2.58;86.03
23166;BME280;11751;42.700;24.170;2023-03-20T03:51:40;94192.38;;;2.55;87.00
23166;BME280;11751;42.700;24.170;2023-03-20T03:56:59;94195.41;;;2.57;86.63
23166;BME280;11751;42.700;24.170;2023-03-20T03:59:35;94195.41;;;2.57;86.88
23166;BME280;11751;42.700;24.170;2023-03-20T04:02:04;94188.09;;;2.54;86.59
23166;BME280;11751;42.700;24.170;2023-03-20T04:04:31;94199.16;;;2.43;87.27
23166;BME280;11751;42.700;24.170;2023-03-20T04:06:58;94185.34;;;2.43;87.53
23166;BME280;11751;42.700;24.170;2023-03-20T04:09:23;94188.63;;;2.42;87.33
23166;BME280;11751;42.700;24.170;2023-03-20T04:11:50;94180.81;;;2.29;87.61
23166;BME280;11751;42.700;24.170;2023-03-20T04:14:17;94178.28;;;2.37;88.18
23166;BME280;11751;42.700;24.170;2023-03-20T04:16:42;94167.25;;;2.31;89.04
23166;BME280;11751;42.700;24.170;2023-03-20T04:19:08;94176.31;;;2.37;88.45
23166;BME280;11751;42.700;24.170;2023-03-20T04:21:33;94166.75;;;2.27;88.54
23166;BME280;11751;42.700;24.170;2023-03-20T04:23:58;94166.25;;;2.34;87.96
23166;BME280;11751;42.700;24.170;2023-03-20T04:26:24;94173.03;;;2.44;87.78
23166;BME280;11751;42.700;24.170;2023-03-20T04:28:50;94168.75;;;2.43;87.71
23166;BME280;11751;42.700;24.170;2023-03-20T04:31:16;94177.81;;;2.44;88.27
23166;BME280;11751;42.700;24.170;2023-03-20T04:33:42;94175.78;;;2.44;89.43
23166;BME280;11751;42.700;24.170;2023-03-20T04:36:08;94180.31;;;2.53;88.48
23166;BME280;11751;42.700;24.170;2023-03-20T04:38:34;94179.81;;;2.54;87.96
23166;BME280;11751;42.700;24.170;2023-03-20T04:40:59;94188.84;;;2.60;87.76
23166;BME280;11751;42.700;24.170;2023-03-20T04:43:25;94183.81;;;2.64;87.13
23166;BME280;11751;42.700;24.170;2023-03-20T04:45:50;94172.50;;;2.62;86.65
23166;BME280;11751;42.700;24.170;2023-03-20T04:48:16;94181.31;;;2.66;86.82
23166;BME280;11751;42.700;24.170;2023-03-20T04:50:41;94174.28;;;2.65;87.04
23166;BME280;11751;42.700;24.170;2023-03-20T04:53:07;94187.09;;;2.68;86.91
23166;BME280;11751;42.700;24.170;2023-03-20T04:55:33;94180.53;;;2.65;87.16
23166;BME280;11751;42.700;24.170;2023-03-20T04:57:58;94186.31;;;2.73;87.40
23166;BME280;11751;42.700;24.170;2023-03-20T05:00:24;94186.31;;;2.73;87.78
23166;BME280;11751;42.700;24.170;2023-03-20T05:02:49;94171.25;;;2.74;87.71
23166;BME280;11751;42.700;24.170;2023-03-20T05:05:15;94178.28;;;2.86;88.03
23166;BME280;11751;42.700;24.170;2023-03-20T05:07:40;94179.50;;;2.96;88.37
23166;BME280;11751;42.700;24.170;2023-03-20T05:10:06;94179.72;;;3.09;88.45
23166;BME280;11751;42.700;24.170;2023-03-20T05:12:31;94180.94;;;3.24;88.25
23166;BME280;11751;42.700;24.170;2023-03-20T05:14:57;94175.63;;;3.32;87.39
23166;BME280;11751;42.700;24.170;2023-03-20T05:17:23;94186.41;;;3.40;87.10
23166;BME280;11751;42.700;24.170;2023-03-20T05:19:49;94183.59;;;3.51;86.76
23166;BME280;11751;42.700;24.170;2023-03-20T05:22:18;94187.59;;;3.61;86.36
23166;BME280;11751;42.700;24.170;2023-03-20T05:24:43;94186.56;;;3.70;86.06
23166;BME280;11751;42.700;24.170;2023-03-20T05:27:09;94194.53;;;3.84;85.67
23166;BME280;11751;42.700;24.170;2023-03-20T05:29:34;94181.97;;;3.83;85.58
23166;BME280;11751;42.700;24.170;2023-03-20T05:32:00;94184.38;;;4.03;85.49
23166;BME280;11751;42.700;24.170;2023-03-20T05:34:25;94187.28;;;4.16;84.61
23166;BME280;11751;42.700;24.170;2023-03-20T05:36:52;94183.41;;;4.30;84.41
23166;BME280;11751;42.700;24.170;2023-03-20T05:39:17;94176.53;;;4.42;84.29
23166;BME280;11751;42.700;24.170;2023-03-20T05:41:42;94179.47;;;4.55;83.38
23166;BME280;11751;42.700;24.170;2023-03-20T05:44:08;94185.44;;;4.64;83.60
23166;BME280;11751;42.700;24.170;2023-03-20T05:46:33;94181.25;;;4.82;83.68
23166;BME280;11751;42.700;24.170;2023-03-20T05:48:59;94177.56;;;4.98;83.57
23166;BME280;11751;42.700;24.170;2023-03-20T05:51:25;94181.75;;;5.09;83.30
23166;BME280;11751;42.700;24.170;2023-03-20T05:53:51;94184.16;;;5.18;82.90
23166;BME280;11751;42.700;24.170;2023-03-20T05:56:16;94184.66;;;5.22;82.55
23166;BME280;11751;42.700;24.170;2023-03-20T05:58:42;94190.09;;;5.33;82.09
23166;BME280;11751;42.700;24.170;2023-03-20T06:01:07;94189.50;;;5.40;81.59
23166;BME280;11751;42.700;24.170;2023-03-20T06:03:32;94181.03;;;5.51;81.22
23166;BME280;11751;42.700;24.170;2023-03-20T06:05:58;94180.09;;;5.67;81.11
23166;BME280;11751;42.700;24.170;2023-03-20T06:08:23;94178.41;;;5.83;80.72
23166;BME280;11751;42.700;24.170;2023-03-20T06:10:50;94182.78;;;5.96;80.05
23166;BME280;11751;42.700;24.170;2023-03-20T06:13:15;94166.69;;;6.08;79.29
23166;BME280;11751;42.700;24.170;2023-03-20T06:15:41;94175.56;;;6.25;79.31
23166;BME280;11751;42.700;24.170;2023-03-20T06:18:06;94176.91;;;6.37;79.57
23166;BME280;11751;42.700;24.170;2023-03-20T06:20:32;94171.41;;;6.50;79.29
23166;BME280;11751;42.700;24.170;2023-03-20T06:22:57;94176.41;;;6.70;79.04
23166;BME280;11751;42.700;24.170;2023-03-20T06:25:23;94173.63;;;6.82;78.25
23166;BME280;11751;42.700;24.170;2023-03-20T06:27:48;94168.34;;;6.97;77.87
23166;BME280;11751;42.700;24.170;2023-03-20T06:30:14;94179.69;;;6.99;78.02
23166;BME280;11751;42.700;24.170;2023-03-20T06:32:40;94171.44;;;7.07;77.82
23166;BME280;11751;42.700;24.170;2023-03-20T06:35:06;94174.78;;;7.05;78.38
23166;BME280;11751;42.700;24.170;2023-03-20T06:37:32;94181.97;;;7.14;78.59
23166;BME280;11751;42.700;24.170;2023-03-20T06:39:57;94179.72;;;7.25;78.14
23166;BME280;11751;42.700;24.170;2023-03-20T06:42:23;94178.25;;;7.37;77.50
23166;BME280;11751;42.700;24.170;2023-03-20T06:44:48;94178.66;;;7.41;77.55
23166;BME280;11751;42.700;24.170;2023-03-20T06:47:15;94182.53;;;7.51;77.41
23166;BME280;11751;42.700;24.170;2023-03-20T06:49:40;94177.19;;;7.66;76.44
23166;BME280;11751;42.700;24.170;2023-03-20T06:52:06;94183.00;;;7.68;76.36
23166;BME280;11751;42.700;24.170;2023-03-20T06:54:33;94187.47;;;7.84;76.38
23166;BME280;11751;42.700;24.170;2023-03-20T06:56:58;94187.56;;;7.91;75.69
23166;BME280;11751;42.700;24.170;2023-03-20T06:59:24;94196.78;;;8.12;75.12
23166;BME280;11751;42.700;24.170;2023-03-20T07:01:50;94192.34;;;8.30;74.28
23166;BME280;11751;42.700;24.170;2023-03-20T07:04:16;94184.88;;;8.58;73.56
23166;BME280;11751;42.700;24.170;2023-03-20T07:06:42;94184.50;;;8.74;72.61
23166;BME280;11751;42.700;24.170;2023-03-20T07:09:07;94180.06;;;8.99;72.41
23166;BME280;11751;42.700;24.170;2023-03-20T07:11:33;94176.72;;;9.21;71.19
23166;BME280;11751;42.700;24.170;2023-03-20T07:13:58;94172.81;;;9.44;70.12
23166;BME280;11751;42.700;24.170;2023-03-20T07:16:25;94167.28;;;9.52;69.34
23166;BME280;11751;42.700;24.170;2023-03-20T07:18:51;94167.22;;;9.72;68.63
23166;BME280;11751;42.700;24.170;2023-03-20T07:21:19;94172.41;;;9.96;68.53
23166;BME280;11751;42.700;24.170;2023-03-20T07:23:46;94169.56;;;10.17;68.14
23166;BME280;11751;42.700;24.170;2023-03-20T07:26:12;94169.44;;;10.29;67.70
23166;BME280;11751;42.700;24.170;2023-03-20T07:28:38;94166.94;;;10.61;67.20
23166;BME280;11751;42.700;24.170;2023-03-20T07:31:03;94163.81;;;10.87;66.51
23166;BME280;11751;42.700;24.170;2023-03-20T07:33:30;94165.31;;;10.88;65.34
23166;BME280;11751;42.700;24.170;2023-03-20T07:35:56;94158.97;;;10.95;65.71
23166;BME280;11751;42.700;24.170;2023-03-20T07:38:22;94165.75;;;11.14;64.88
23166;BME280;11751;42.700;24.170;2023-03-20T07:40:47;94163.09;;;11.24;63.89
23166;BME280;11751;42.700;24.170;2023-03-20T07:43:14;94159.03;;;11.40;62.61
23166;BME280;11751;42.700;24.170;2023-03-20T07:45:40;94162.75;;;11.50;61.71
23166;BME280;11751;42.700;24.170;2023-03-20T07:48:06;94164.59;;;11.77;61.65
23166;BME280;11751;42.700;24.170;2023-03-20T07:50:31;94155.97;;;11.97;61.39
23166;BME280;11751;42.700;24.170;2023-03-20T07:52:57;94168.44;;;12.26;60.48
23166;BME280;11751;42.700;24.170;2023-03-20T07:55:22;94168.53;;;12.51;59.32
23166;BME280;11751;42.700;24.170;2023-03-20T07:57:48;94171.41;;;12.75;58.92
23166;BME280;11751;42.700;24.170;2023-03-20T08:00:14;94163.09;;;12.92;58.41
23166;BME280;11751;42.700;24.170;2023-03-20T08:02:40;94168.63;;;13.07;57.66
23166;BME280;11751;42.700;24.170;2023-03-20T08:05:06;94166.22;;;13.28;56.38
23166;BME280;11751;42.700;24.170;2023-03-20T08:07:32;94160.91;;;13.39;56.01
23166;BME280;11751;42.700;24.170;2023-03-20T08:09:58;94172.03;;;13.54;56.08
23166;BME280;11751;42.700;24.170;2023-03-20T08:12:23;94176.13;;;13.61;55.83
23166;BME280;11751;42.700;24.170;2023-03-20T08:14:48;94160.13;;;13.87;55.83
23166;BME280;11751;42.700;24.170;2023-03-20T08:17:14;94162.97;;;14.04;55.55
23166;BME280;11751;42.700;24.170;2023-03-20T08:19:39;94161.94;;;13.92;54.56
23166;BME280;11751;42.700;24.170;2023-03-20T08:22:05;94163.59;;;13.95;53.88
23166;BME280;11751;42.700;24.170;2023-03-20T08:24:30;94160.00;;;14.19;53.95
23166;BME280;11751;42.700;24.170;2023-03-20T08:26:56;94153.22;;;14.22;53.87
23166;BME280;11751;42.700;24.170;2023-03-20T08:29:21;94157.84;;;14.61;54.59
23166;BME280;11751;42.700;24.170;2023-03-20T08:31:47;94157.34;;;14.72;52.16
23166;BME280;11751;42.700;24.170;2023-03-20T08:34:12;94157.34;;;14.72;52.04
23166;BME280;11751;42.700;24.170;2023-03-20T08:36:38;94154.06;;;14.92;51.70
23166;BME280;11751;42.700;24.170;2023-03-20T08:39:06;94151.72;;;15.25;51.93
23166;BME280;11751;42.700;24.170;2023-03-20T08:41:33;94154.28;;;15.30;49.95
23166;BME280;11751;42.700;24.170;2023-03-20T08:43:59;94152.47;;;15.51;49.86
23166;BME280;11751;42.700;24.170;2023-03-20T08:46:25;94144.75;;;15.61;50.83
23166;BME280;11751;42.700;24.170;2023-03-20T08:48:51;94146.31;;;15.81;48.89
23166;BME280;11751;42.700;24.170;2023-03-20T08:51:16;94139.25;;;15.99;49.21
23166;BME280;11751;42.700;24.170;2023-03-20T08:53:41;94142.34;;;16.03;48.84
23166;BME280;11751;42.700;24.170;2023-03-20T08:56:08;94142.94;;;16.11;48.39
23166;BME280;11751;42.700;24.170;2023-03-20T08:58:33;94131.41;;;16.35;47.92
23166;BME280;11751;42.700;24.170;2023-03-20T09:01:03;94144.34;;;16.29;47.64
23166;BME280;11751;42.700;24.170;2023-03-20T09:03:29;94132.16;;;16.36;46.87
23166;BME280;11751;42.700;24.170;2023-03-20T09:05:55;94127.09;;;16.44;46.55
23166;BME280;11751;42.700;24.170;2023-03-20T09:08:21;94132.00;;;16.53;44.51
23166;BME280;11751;42.700;24.170;2023-03-20T09:10:47;94129.19;;;16.53;45.46
23166;BME280;11751;42.700;24.170;2023-03-20T09:13:13;94129.19;;;16.72;45.80
23166;BME280;11751;42.700;24.170;2023-03-20T09:15:38;94120.25;;;16.75;45.15
23166;BME280;11751;42.700;24.170;2023-03-20T09:18:04;94123.50;;;16.91;45.46
23166;BME280;11751;42.700;24.170;2023-03-20T09:20:30;94124.06;;;17.08;45.10
23166;BME280;11751;42.700;24.170;2023-03-20T09:22:56;94123.72;;;17.23;45.96
23166;BME280;11751;42.700;24.170;2023-03-20T09:25:21;94109.88;;;17.36;46.21
23166;BME280;11751;42.700;24.170;2023-03-20T09:27:50;94117.13;;;17.39;45.06
23166;BME280;11751;42.700;24.170;2023-03-20T09:30:16;94113.75;;;17.22;45.90
23166;BME280;11751;42.700;24.170;2023-03-20T09:32:41;94110.84;;;17.50;45.65
23166;BME280;11751;42.700;24.170;2023-03-20T09:35:07;94109.34;;;17.49;44.49
23166;BME280;11751;42.700;24.170;2023-03-20T09:37:32;94108.13;;;17.83;44.07
23166;BME280;11751;42.700;24.170;2023-03-20T09:39:58;94096.72;;;17.71;43.71
23166;BME280;11751;42.700;24.170;2023-03-20T09:48:01;94088.47;;;18.05;43.03
23166;BME280;11751;42.700;24.170;2023-03-20T09:55:39;94071.41;;;18.15;40.60
23166;BME280;11751;42.700;24.170;2023-03-20T10:00:57;94075.06;;;18.48;40.72
23166;BME280;11751;42.700;24.170;2023-03-20T10:03:40;94069.75;;;18.75;41.81
23166;BME280;11751;42.700;24.170;2023-03-20T10:06:12;94068.00;;;18.70;40.44
23166;BME280;11751;42.700;24.170;2023-03-20T10:08:38;94065.78;;;18.68;40.51
23166;BME280;11751;42.700;24.170;2023-03-20T10:19:43;94049.38;;;19.10;38.90
23166;BME280;11751;42.700;24.170;2023-03-20T10:33:12;94039.88;;;19.86;36.44
23166;BME280;11751;42.700;24.170;2023-03-20T10:35:51;94026.69;;;20.02;35.53
23166;BME280;11751;42.700;24.170;2023-03-20T10:38:32;94022.53;;;20.28;34.37
23166;BME280;11751;42.700;24.170;2023-03-20T10:41:00;94018.78;;;20.37;35.28
23166;BME280;11751;42.700;24.170;2023-03-20T10:43:34;94017.81;;;20.57;34.86
23166;BME280;11751;42.700;24.170;2023-03-20T10:46:19;94014.00;;;20.53;33.77
23166;BME280;11751;42.700;24.170;2023-03-20T10:49:03;94003.88;;;20.74;34.24
23166;BME280;11751;42.700;24.170;2023-03-20T10:51:45;94004.16;;;20.78;33.35
23166;BME280;11751;42.700;24.170;2023-03-20T10:54:23;93992.28;;;20.70;31.53
23166;BME280;11751;42.700;24.170;2023-03-20T10:56:52;93989.44;;;20.95;31.38
23166;BME280;11751;42.700;24.170;2023-03-20T10:59:26;93990.63;;;21.04;31.05
23166;BME280;11751;42.700;24.170;2023-03-20T11:01:53;93983.41;;;21.41;30.07
23166;BME280;11751;42.700;24.170;2023-03-20T11:04:19;93976.03;;;21.36;30.33
23166;BME280;11751;42.700;24.170;2023-03-20T11:09:17;93959.06;;;21.92;29.76
23166;BME280;11751;42.700;24.170;2023-03-20T11:11:45;93957.47;;;21.89;28.25
23166;BME280;11751;42.700;24.170;2023-03-20T11:14:22;93960.03;;;21.83;28.65
23166;BME280;11751;42.700;24.170;2023-03-20T11:16:50;93962.13;;;21.96;27.70
23166;BME280;11751;42.700;24.170;2023-03-20T11:19:18;93946.84;;;22.32;26.81
23166;BME280;11751;42.700;24.170;2023-03-20T11:21:54;93940.00;;;22.37;26.28
23166;BME280;11751;42.700;24.170;2023-03-20T11:24:36;93944.22;;;22.36;27.85
23166;BME280;11751;42.700;24.170;2023-03-20T11:27:07;93929.69;;;22.45;27.12
23166;BME280;11751;42.700;24.170;2023-03-20T11:29:33;93937.88;;;22.24;27.54
23166;BME280;11751;42.700;24.170;2023-03-20T11:32:27;93938.63;;;22.53;27.31
23166;BME280;11751;42.700;24.170;2023-03-20T11:34:54;93932.22;;;22.52;26.74
23166;BME280;11751;42.700;24.170;2023-03-20T11:37:28;93931.13;;;22.59;26.86
23166;BME280;11751;42.700;24.170;2023-03-20T11:40:21;93922.44;;;22.57;26.20
23166;BME280;11751;42.700;24.170;2023-03-20T11:42:56;93925.59;;;22.63;26.83
23166;BME280;11751;42.700;24.170;2023-03-20T11:45:34;93922.47;;;22.73;26.38
23166;BME280;11751;42.700;24.170;2023-03-20T11:48:02;93917.19;;;22.81;25.88
23166;BME280;11751;42.700;24.170;2023-03-20T11:50:41;93914.94;;;22.79;26.23
23166;BME280;11751;42.700;24.170;2023-03-20T12:01:21;93888.94;;;22.58;24.53
23166;BME280;11751;42.700;24.170;2023-03-20T12:03:56;93907.50;;;22.88;25.81
23166;BME280;11751;42.700;24.170;2023-03-20T12:09:02;93895.44;;;22.89;24.92
23166;BME280;11751;42.700;24.170;2023-03-20T12:14:22;93890.06;;;22.66;24.55
23166;BME280;11751;42.700;24.170;2023-03-20T12:16:54;93889.59;;;22.72;24.92
23166;BME280;11751;42.700;24.170;2023-03-20T12:19:27;93891.56;;;22.98;24.89
23166;BME280;11751;42.700;24.170;2023-03-20T12:22:48;93897.09;;;22.94;25.00
23166;BME280;11751;42.700;24.170;2023-03-20T12:25:30;93883.31;;;23.04;24.89
23166;BME280;11751;42.700;24.170;2023-03-20T12:28:09;93884.56;;;22.86;24.21
23166;BME280;11751;42.700;24.170;2023-03-20T12:30:58;93882.91;;;22.96;24.51
23166;BME280;11751;42.700;24.170;2023-03-20T12:36:00;93879.34;;;23.11;24.23
23166;BME280;11751;42.700;24.170;2023-03-20T12:38:31;93871.34;;;23.23;24.44
23166;BME280;11751;42.700;24.170;2023-03-20T12:49:14;93856.91;;;23.52;22.85
23166;BME280;11751;42.700;24.170;2023-03-20T13:00:12;93851.47;;;23.42;24.79
23166;BME280;11751;42.700;24.170;2023-03-20T13:05:44;93853.06;;;23.30;24.25
23166;BME280;11751;42.700;24.170;2023-03-20T13:11:08;93830.22;;;22.99;23.97
23166;BME280;11751;42.700;24.170;2023-03-20T13:13:55;93847.09;;;23.24;23.84
23166;BME280;11751;42.700;24.170;2023-03-20T13:19:06;93840.25;;;23.31;25.06
23166;BME280;11751;42.700;24.170;2023-03-20T13:30:02;93831.00;;;23.48;23.13
23166;BME280;11751;42.700;24.170;2023-03-20T13:32:12;93829.84;;;23.37;23.36
23166;BME280;11751;42.700;24.170;2023-03-20T13:37:23;93834.25;;;23.25;24.55
23166;BME280;11751;42.700;24.170;2023-03-20T13:48:00;93807.34;;;23.30;24.66
23166;BME280;11751;42.700;24.170;2023-03-20T13:50:33;93805.75;;;23.42;24.68
23166;BME280;11751;42.700;24.170;2023-03-20T13:53:21;93806.72;;;23.16;24.03
23166;BME280;11751;42.700;24.170;2023-03-20T13:56:02;93804.50;;;22.99;23.13
23166;BME280;11751;42.700;24.170;2023-03-20T14:01:39;93800.19;;;22.67;22.62
23166;BME280;11751;42.700;24.170;2023-03-20T14:04:14;93799.09;;;22.74;23.33
23166;BME280;11751;42.700;24.170;2023-03-20T14:06:48;93797.63;;;22.73;22.54
23166;BME280;11751;42.700;24.170;2023-03-20T14:11:52;93773.13;;;22.68;23.15
23166;BME280;11751;42.700;24.170;2023-03-20T14:14:29;93780.22;;;22.67;22.61
23166;BME280;11751;42.700;24.170;2023-03-20T14:19:35;93773.13;;;22.53;23.16
23166;BME280;11751;42.700;24.170;2023-03-20T14:22:02;93773.56;;;22.63;23.81
23166;BME280;11751;42.700;24.170;2023-03-20T14:24:28;93773.22;;;22.70;23.82
23166;BME280;11751;42.700;24.170;2023-03-20T14:26:58;93772.84;;;22.62;22.42
23166;BME280;11751;42.700;24.170;2023-03-20T14:34:49;93761.53;;;22.34;22.54
23166;BME280;11751;42.700;24.170;2023-03-20T14:37:37;93766.03;;;22.39;22.69
23166;BME280;11751;42.700;24.170;2023-03-20T14:40:21;93754.84;;;22.14;23.04
23166;BME280;11751;42.700;24.170;2023-03-20T14:45:35;93767.72;;;22.15;23.83
23166;BME280;11751;42.700;24.170;2023-03-20T14:48:15;93763.84;;;22.08;23.46
23166;BME280;11751;42.700;24.170;2023-03-20T14:53:31;93758.94;;;21.95;23.75
23166;BME280;11751;42.700;24.170;2023-03-20T14:56:04;93756.97;;;21.84;23.75
23166;BME280;11751;42.700;24.170;2023-03-20T15:01:07;93765.59;;;21.71;24.43
23166;BME280;11751;42.700;24.170;2023-03-20T15:03:35;93749.03;;;21.67;24.30
23166;BME280;11751;42.700;24.170;2023-03-20T15:06:05;93752.53;;;21.66;24.38
23166;BME280;11751;42.700;24.170;2023-03-20T15:08:34;93741.97;;;21.55;24.72
23166;BME280;11751;42.700;24.170;2023-03-20T15:11:08;93753.16;;;21.51;24.32
23166;BME280;11751;42.700;24.170;2023-03-20T15:13:35;93759.69;;;21.67;24.48
23166;BME280;11751;42.700;24.170;2023-03-20T15:16:07;93764.56;;;21.51;25.31
23166;BME280;11751;42.700;24.170;2023-03-20T15:21:33;93753.03;;;21.20;25.63
23166;BME280;11751;42.700;24.170;2023-03-20T15:23:59;93758.28;;;21.26;25.91
23166;BME280;11751;42.700;24.170;2023-03-20T15:26:27;93758.44;;;21.14;26.06
23166;BME280;11751;42.700;24.170;2023-03-20T15:29:02;93759.28;;;21.03;25.35
23166;BME280;11751;42.700;24.170;2023-03-20T15:31:32;93754.13;;;20.86;25.78
23166;BME280;11751;42.700;24.170;2023-03-20T15:34:00;93757.41;;;20.81;25.68
23166;BME280;11751;42.700;24.170;2023-03-20T15:36:28;93758.34;;;20.85;25.68
23166;BME280;11751;42.700;24.170;2023-03-20T15:39:06;93769.81;;;20.74;26.86
23166;BME280;11751;42.700;24.170;2023-03-20T15:41:36;93784.22;;;20.64;27.23
23166;BME280;11751;42.700;24.170;2023-03-20T15:44:14;93790.97;;;20.58;28.04
23166;BME280;11751;42.700;24.170;2023-03-20T15:46:50;93795.28;;;20.07;29.34